Americus, GA (31709)

11:39 AM EDT on August 30, 2015 (GMT -0400)
Wildwood Circle | | Change Station
CLOSE
Current Station
Personal Weather Station
Location: Americus, GA
Elevation: 402 ft
Nearby Weather Stations

Elev 402 ft 32.06 °N, 84.21 °W | Updated 9 minutes ago

Overcast
Overcast
80.1 °F
Feels Like 82 °F
N
0.4
Wind Variable Wind from SW
Gusts 2.2 mph

Today
High -- | Low -- °F
--% Chance of Precip.
Yesterday
High -- | Low -- °F
Precip. -- in
7:10 AM 8:03 PM
Full, 99% visible
Pressure 30.12 in
Visibility 10.0 miles
Clouds Scattered Clouds 1000 ft
Mostly Cloudy 1500 ft
Mostly Cloudy 2100 ft
Heat Index 82 °F
Dew Point 65 °F
Humidity 60%
Rainfall 0.35 in
Snow Depth Not available.
UV 4 out of 12
Pollen 7.30 out of 12
Air Quality Not available.
Flu Activity Not available.
METAR KACJ 301515Z AUTO 16004KT 10SM SCT010 BKN015 BKN021 25/24 A3012 RMK AO2
Pressure 30.12 in
Visibility 10.0 miles
Clouds Scattered Clouds 1000 ft
Mostly Cloudy 1500 ft
Mostly Cloudy 2100 ft
Heat Index 82 °F
Dew Point 65 °F
Humidity 60%
Rainfall 0.35 in
Snow Depth Not available.
UV 4 out of 12
Pollen 7.30 out of 12
Air Quality Not available.
Flu Activity Not available.
METAR KACJ 301515Z AUTO 16004KT 10SM SCT010 BKN015 BKN021 25/24 A3012 RMK AO2

10-Day Weather Forecast

×

Almanac

Astronomy

Aug. 30, 2015 Rise Set
Actual Time
Civil Twilight
Nautical Twilight
Astronomical Twilight
Moon
Length of Visible Light
Length of Day
Tomorrow will be .
, % of the Moon is Illuminated

Today's Extremes

State Highs State Lows

Community

WunderPhotos

Upload Photos

1,850,996 photos uploaded!

WunderBlogs® & News

Nearby

Air Quality

  Air Quality AQ Index Pollutant
Not available.

Snow Depth

Station Depth Elevation

Earthquake Activity

City Distance Mag. Time & Date
Minimum magnitude displayed is 2.5.

Coastal Water Temperatures

Place Temperature

Stations

Nearby Weather Stations

Station Location Temp. Windchill Dew Point Humidity Wind Precip. Elev Updated Type